sensor_id;sensor_type;location;lat;lon;timestamp;P1;durP1;ratioP1;P2;durP2;ratioP2
29206;SDS011;16247;50.840;4.382;2022-12-07T00:01:10;18.83;;;12.35;;
29206;SDS011;16247;50.840;4.382;2022-12-07T00:03:43;22.92;;;12.18;;
29206;SDS011;16247;50.840;4.382;2022-12-07T00:06:14;25.90;;;12.93;;
29206;SDS011;16247;50.840;4.382;2022-12-07T00:08:43;22.15;;;14.07;;
29206;SDS011;16247;50.840;4.382;2022-12-07T00:11:11;22.67;;;14.05;;
29206;SDS011;16247;50.840;4.382;2022-12-07T00:13:39;25.77;;;12.95;;
29206;SDS011;16247;50.840;4.382;2022-12-07T00:16:15;20.83;;;13.03;;
29206;SDS011;16247;50.840;4.382;2022-12-07T00:18:44;19.90;;;13.25;;
29206;SDS011;16247;50.840;4.382;2022-12-07T00:21:16;17.83;;;13.18;;
29206;SDS011;16247;50.840;4.382;2022-12-07T00:23:49;20.58;;;13.35;;
29206;SDS011;16247;50.840;4.382;2022-12-07T00:26:22;22.60;;;14.88;;
29206;SDS011;16247;50.840;4.382;2022-12-07T00:28:51;21.98;;;14.35;;
29206;SDS011;16247;50.840;4.382;2022-12-07T00:33:47;25.67;;;14.93;;
29206;SDS011;16247;50.840;4.382;2022-12-07T00:36:13;23.33;;;15.13;;
29206;SDS011;16247;50.840;4.382;2022-12-07T00:38:49;23.88;;;15.73;;
29206;SDS011;16247;50.840;4.382;2022-12-07T00:41:25;22.58;;;15.38;;
29206;SDS011;16247;50.840;4.382;2022-12-07T00:43:53;25.50;;;15.95;;
29206;SDS011;16247;50.840;4.382;2022-12-07T00:46:20;25.50;;;16.30;;
29206;SDS011;16247;50.840;4.382;2022-12-07T00:48:48;29.80;;;17.40;;
29206;SDS011;16247;50.840;4.382;2022-12-07T00:51:15;27.42;;;16.10;;
29206;SDS011;16247;50.840;4.382;2022-12-07T00:53:44;25.70;;;16.00;;
29206;SDS011;16247;50.840;4.382;2022-12-07T00:56:21;22.73;;;14.90;;
29206;SDS011;16247;50.840;4.382;2022-12-07T00:58:57;27.05;;;16.33;;
29206;SDS011;16247;50.840;4.382;2022-12-07T01:01:25;24.17;;;15.57;;
29206;SDS011;16247;50.840;4.382;2022-12-07T01:03:53;25.65;;;14.80;;
29206;SDS011;16247;50.840;4.382;2022-12-07T01:06:20;28.55;;;16.85;;
29206;SDS011;16247;50.840;4.382;2022-12-07T01:08:47;26.23;;;16.20;;
29206;SDS011;16247;50.840;4.382;2022-12-07T01:11:15;30.92;;;16.90;;
29206;SDS011;16247;50.840;4.382;2022-12-07T01:13:44;25.48;;;16.70;;
29206;SDS011;16247;50.840;4.382;2022-12-07T01:16:11;24.80;;;15.35;;
29206;SDS011;16247;50.840;4.382;2022-12-07T01:18:40;25.40;;;16.30;;
29206;SDS011;16247;50.840;4.382;2022-12-07T01:21:11;24.95;;;16.00;;
29206;SDS011;16247;50.840;4.382;2022-12-07T01:23:40;21.35;;;14.43;;
29206;SDS011;16247;50.840;4.382;2022-12-07T01:26:08;19.67;;;14.88;;
29206;SDS011;16247;50.840;4.382;2022-12-07T01:28:37;22.20;;;14.70;;
29206;SDS011;16247;50.840;4.382;2022-12-07T01:31:07;23.92;;;15.57;;
29206;SDS011;16247;50.840;4.382;2022-12-07T01:33:41;24.33;;;14.65;;
29206;SDS011;16247;50.840;4.382;2022-12-07T01:36:16;21.10;;;14.63;;
29206;SDS011;16247;50.840;4.382;2022-12-07T01:39:09;21.63;;;14.48;;
29206;SDS011;16247;50.840;4.382;2022-12-07T01:41:56;23.20;;;14.98;;
29206;SDS011;16247;50.840;4.382;2022-12-07T01:44:28;22.17;;;14.85;;
29206;SDS011;16247;50.840;4.382;2022-12-07T01:47:01;23.08;;;14.35;;
29206;SDS011;16247;50.840;4.382;2022-12-07T01:49:33;24.35;;;14.90;;
29206;SDS011;16247;50.840;4.382;2022-12-07T01:54:51;22.25;;;14.05;;
29206;SDS011;16247;50.840;4.382;2022-12-07T01:57:22;24.25;;;15.68;;
29206;SDS011;16247;50.840;4.382;2022-12-07T01:59:51;24.67;;;15.23;;
29206;SDS011;16247;50.840;4.382;2022-12-07T02:05:06;28.17;;;14.98;;
29206;SDS011;16247;50.840;4.382;2022-12-07T02:07:38;24.77;;;13.70;;
29206;SDS011;16247;50.840;4.382;2022-12-07T02:10:18;24.90;;;13.98;;
29206;SDS011;16247;50.840;4.382;2022-12-07T02:24:28;23.15;;;14.65;;
29206;SDS011;16247;50.840;4.382;2022-12-07T02:43:40;16.55;;;11.13;;
29206;SDS011;16247;50.840;4.382;2022-12-07T02:46:31;18.95;;;11.70;;
29206;SDS011;16247;50.840;4.382;2022-12-07T02:49:00;21.52;;;14.23;;
29206;SDS011;16247;50.840;4.382;2022-12-07T02:51:33;21.73;;;13.60;;
29206;SDS011;16247;50.840;4.382;2022-12-07T02:54:09;18.15;;;11.82;;
29206;SDS011;16247;50.840;4.382;2022-12-07T03:10:00;17.83;;;9.95;;
29206;SDS011;16247;50.840;4.382;2022-12-07T03:12:49;16.70;;;9.80;;
29206;SDS011;16247;50.840;4.382;2022-12-07T03:24:47;22.63;;;10.88;;
29206;SDS011;16247;50.840;4.382;2022-12-07T03:27:26;17.73;;;10.88;;
29206;SDS011;16247;50.840;4.382;2022-12-07T03:32:36;16.90;;;10.70;;
29206;SDS011;16247;50.840;4.382;2022-12-07T03:41:06;15.82;;;10.45;;
29206;SDS011;16247;50.840;4.382;2022-12-07T03:43:37;14.82;;;10.18;;
29206;SDS011;16247;50.840;4.382;2022-12-07T03:51:50;14.25;;;9.98;;
29206;SDS011;16247;50.840;4.382;2022-12-07T03:56:55;19.30;;;10.32;;
29206;SDS011;16247;50.840;4.382;2022-12-07T03:59:24;13.20;;;9.07;;
29206;SDS011;16247;50.840;4.382;2022-12-07T04:01:54;17.38;;;9.90;;
29206;SDS011;16247;50.840;4.382;2022-12-07T04:04:23;17.75;;;10.30;;
29206;SDS011;16247;50.840;4.382;2022-12-07T04:06:58;15.63;;;9.77;;
29206;SDS011;16247;50.840;4.382;2022-12-07T04:09:26;14.25;;;10.55;;
29206;SDS011;16247;50.840;4.382;2022-12-07T04:12:04;15.35;;;9.40;;
29206;SDS011;16247;50.840;4.382;2022-12-07T04:14:31;12.68;;;8.65;;
29206;SDS011;16247;50.840;4.382;2022-12-07T04:16:57;15.02;;;9.20;;
29206;SDS011;16247;50.840;4.382;2022-12-07T04:19:34;14.18;;;9.60;;
29206;SDS011;16247;50.840;4.382;2022-12-07T04:22:02;16.02;;;9.32;;
29206;SDS011;16247;50.840;4.382;2022-12-07T04:24:30;16.55;;;9.00;;
29206;SDS011;16247;50.840;4.382;2022-12-07T04:26:57;16.52;;;10.00;;
29206;SDS011;16247;50.840;4.382;2022-12-07T04:29:26;17.73;;;9.68;;
29206;SDS011;16247;50.840;4.382;2022-12-07T04:31:52;16.70;;;10.18;;
29206;SDS011;16247;50.840;4.382;2022-12-07T04:36:50;14.15;;;10.20;;
29206;SDS011;16247;50.840;4.382;2022-12-07T04:39:20;17.42;;;10.13;;
29206;SDS011;16247;50.840;4.382;2022-12-07T04:41:49;17.80;;;11.05;;
29206;SDS011;16247;50.840;4.382;2022-12-07T04:44:17;13.68;;;11.43;;
29206;SDS011;16247;50.840;4.382;2022-12-07T04:46:43;19.67;;;12.77;;
29206;SDS011;16247;50.840;4.382;2022-12-07T04:49:09;22.48;;;13.32;;
29206;SDS011;16247;50.840;4.382;2022-12-07T04:51:36;21.67;;;11.90;;
29206;SDS011;16247;50.840;4.382;2022-12-07T04:54:03;20.20;;;13.63;;
29206;SDS011;16247;50.840;4.382;2022-12-07T04:56:29;21.95;;;13.43;;
29206;SDS011;16247;50.840;4.382;2022-12-07T04:58:55;19.80;;;13.88;;
29206;SDS011;16247;50.840;4.382;2022-12-07T05:01:21;23.05;;;13.80;;
29206;SDS011;16247;50.840;4.382;2022-12-07T05:03:48;21.85;;;13.38;;
29206;SDS011;16247;50.840;4.382;2022-12-07T05:06:14;20.58;;;14.00;;
29206;SDS011;16247;50.840;4.382;2022-12-07T05:08:40;21.75;;;13.02;;
29206;SDS011;16247;50.840;4.382;2022-12-07T05:11:07;21.27;;;13.68;;
29206;SDS011;16247;50.840;4.382;2022-12-07T05:13:33;22.23;;;13.87;;
29206;SDS011;16247;50.840;4.382;2022-12-07T05:16:01;24.77;;;13.88;;
29206;SDS011;16247;50.840;4.382;2022-12-07T05:18:27;22.35;;;13.95;;
29206;SDS011;16247;50.840;4.382;2022-12-07T05:20:53;18.52;;;12.63;;
29206;SDS011;16247;50.840;4.382;2022-12-07T05:23:24;20.60;;;12.52;;
29206;SDS011;16247;50.840;4.382;2022-12-07T05:25:50;22.73;;;14.43;;
29206;SDS011;16247;50.840;4.382;2022-12-07T05:28:16;19.63;;;12.80;;
29206;SDS011;16247;50.840;4.382;2022-12-07T05:30:47;20.35;;;11.73;;
29206;SDS011;16247;50.840;4.382;2022-12-07T05:33:15;18.13;;;12.18;;
29206;SDS011;16247;50.840;4.382;2022-12-07T05:35:41;20.08;;;12.70;;
29206;SDS011;16247;50.840;4.382;2022-12-07T05:38:07;18.85;;;12.15;;
29206;SDS011;16247;50.840;4.382;2022-12-07T05:40:33;19.05;;;12.45;;
29206;SDS011;16247;50.840;4.382;2022-12-07T05:42:59;18.40;;;10.90;;
29206;SDS011;16247;50.840;4.382;2022-12-07T05:45:26;18.58;;;10.40;;
29206;SDS011;16247;50.840;4.382;2022-12-07T05:47:58;17.52;;;11.43;;
29206;SDS011;16247;50.840;4.382;2022-12-07T05:50:27;21.45;;;10.93;;
29206;SDS011;16247;50.840;4.382;2022-12-07T05:52:59;17.23;;;11.65;;
29206;SDS011;16247;50.840;4.382;2022-12-07T05:55:26;18.67;;;11.55;;
29206;SDS011;16247;50.840;4.382;2022-12-07T05:57:54;20.63;;;12.35;;
29206;SDS011;16247;50.840;4.382;2022-12-07T06:00:44;17.50;;;11.48;;
29206;SDS011;16247;50.840;4.382;2022-12-07T06:03:13;19.33;;;10.85;;
29206;SDS011;16247;50.840;4.382;2022-12-07T06:05:44;23.63;;;11.55;;
29206;SDS011;16247;50.840;4.382;2022-12-07T06:08:09;16.88;;;9.68;;
29206;SDS011;16247;50.840;4.382;2022-12-07T06:10:41;20.42;;;10.80;;
29206;SDS011;16247;50.840;4.382;2022-12-07T06:13:20;15.57;;;9.30;;
29206;SDS011;16247;50.840;4.382;2022-12-07T06:15:59;19.25;;;10.48;;
29206;SDS011;16247;50.840;4.382;2022-12-07T06:18:45;17.33;;;11.23;;
29206;SDS011;16247;50.840;4.382;2022-12-07T06:21:16;13.02;;;9.30;;
29206;SDS011;16247;50.840;4.382;2022-12-07T06:24:17;12.40;;;8.40;;
29206;SDS011;16247;50.840;4.382;2022-12-07T06:26:49;16.45;;;9.07;;
29206;SDS011;16247;50.840;4.382;2022-12-07T06:37:19;15.77;;;9.90;;
29206;SDS011;16247;50.840;4.382;2022-12-07T06:53:39;19.45;;;9.68;;
29206;SDS011;16247;50.840;4.382;2022-12-07T06:56:13;14.07;;;8.85;;
29206;SDS011;16247;50.840;4.382;2022-12-07T06:58:43;17.92;;;9.70;;
29206;SDS011;16247;50.840;4.382;2022-12-07T07:01:38;15.65;;;9.10;;
29206;SDS011;16247;50.840;4.382;2022-12-07T07:04:06;15.63;;;8.30;;
29206;SDS011;16247;50.840;4.382;2022-12-07T07:06:38;17.25;;;9.13;;
29206;SDS011;16247;50.840;4.382;2022-12-07T07:09:35;19.27;;;11.18;;
29206;SDS011;16247;50.840;4.382;2022-12-07T07:12:04;15.88;;;8.30;;
29206;SDS011;16247;50.840;4.382;2022-12-07T07:14:32;14.40;;;8.95;;
29206;SDS011;16247;50.840;4.382;2022-12-07T08:24:20;13.52;;;8.52;;
29206;SDS011;16247;50.840;4.382;2022-12-07T08:27:07;16.88;;;9.50;;
29206;SDS011;16247;50.840;4.382;2022-12-07T08:29:36;14.35;;;8.32;;
29206;SDS011;16247;50.840;4.382;2022-12-07T08:32:17;18.38;;;9.90;;
29206;SDS011;16247;50.840;4.382;2022-12-07T08:50:32;16.35;;;8.82;;
29206;SDS011;16247;50.840;4.382;2022-12-07T09:19:26;13.73;;;8.23;;
29206;SDS011;16247;50.840;4.382;2022-12-07T09:21:54;17.33;;;8.52;;
29206;SDS011;16247;50.840;4.382;2022-12-07T09:26:54;14.43;;;7.25;;
29206;SDS011;16247;50.840;4.382;2022-12-07T09:29:20;16.38;;;8.02;;
29206;SDS011;16247;50.840;4.382;2022-12-07T09:34:18;17.20;;;8.70;;
29206;SDS011;16247;50.840;4.382;2022-12-07T09:36:53;15.52;;;7.90;;
29206;SDS011;16247;50.840;4.382;2022-12-07T09:39:33;15.90;;;7.78;;
29206;SDS011;16247;50.840;4.382;2022-12-07T09:42:08;16.10;;;7.90;;
29206;SDS011;16247;50.840;4.382;2022-12-07T09:45:04;17.98;;;8.40;;
29206;SDS011;16247;50.840;4.382;2022-12-07T09:47:43;19.48;;;8.73;;
29206;SDS011;16247;50.840;4.382;2022-12-07T10:20:33;16.35;;;8.15;;
29206;SDS011;16247;50.840;4.382;2022-12-07T10:23:08;14.32;;;7.88;;
29206;SDS011;16247;50.840;4.382;2022-12-07T10:25:43;13.23;;;7.93;;
29206;SDS011;16247;50.840;4.382;2022-12-07T10:28:35;17.38;;;8.18;;
29206;SDS011;16247;50.840;4.382;2022-12-07T10:31:24;16.00;;;8.88;;
29206;SDS011;16247;50.840;4.382;2022-12-07T10:33:57;15.40;;;8.85;;
29206;SDS011;16247;50.840;4.382;2022-12-07T18:25:13;17.20;;;8.73;;
29206;SDS011;16247;50.840;4.382;2022-12-07T18:27:40;19.55;;;10.70;;
29206;SDS011;16247;50.840;4.382;2022-12-07T18:30:09;14.02;;;8.95;;
29206;SDS011;16247;50.840;4.382;2022-12-07T18:32:35;14.48;;;9.50;;
29206;SDS011;16247;50.840;4.382;2022-12-07T18:35:04;15.88;;;10.52;;
29206;SDS011;16247;50.840;4.382;2022-12-07T18:37:39;13.35;;;9.63;;
29206;SDS011;16247;50.840;4.382;2022-12-07T18:43:18;17.15;;;11.38;;
29206;SDS011;16247;50.840;4.382;2022-12-07T18:46:16;17.52;;;11.80;;
29206;SDS011;16247;50.840;4.382;2022-12-07T18:49:29;23.10;;;11.40;;
29206;SDS011;16247;50.840;4.382;2022-12-07T18:59:52;15.50;;;10.40;;
29206;SDS011;16247;50.840;4.382;2022-12-07T19:02:18;19.38;;;11.07;;
29206;SDS011;16247;50.840;4.382;2022-12-07T19:04:45;17.98;;;10.57;;
29206;SDS011;16247;50.840;4.382;2022-12-07T19:07:10;41.42;;;17.88;;
29206;SDS011;16247;50.840;4.382;2022-12-07T19:09:38;19.35;;;10.60;;
29206;SDS011;16247;50.840;4.382;2022-12-07T19:14:36;19.35;;;10.30;;
29206;SDS011;16247;50.840;4.382;2022-12-07T19:17:15;22.38;;;10.15;;
29206;SDS011;16247;50.840;4.382;2022-12-07T19:19:44;18.83;;;10.13;;
29206;SDS011;16247;50.840;4.382;2022-12-07T19:22:22;19.20;;;11.23;;
29206;SDS011;16247;50.840;4.382;2022-12-07T19:27:15;18.50;;;9.77;;
29206;SDS011;16247;50.840;4.382;2022-12-07T19:29:45;21.77;;;9.98;;
29206;SDS011;16247;50.840;4.382;2022-12-07T19:32:12;19.25;;;10.07;;
29206;SDS011;16247;50.840;4.382;2022-12-07T19:34:43;19.33;;;9.55;;
29206;SDS011;16247;50.840;4.382;2022-12-07T19:37:13;16.35;;;9.52;;
29206;SDS011;16247;50.840;4.382;2022-12-07T19:39:41;15.68;;;9.32;;
29206;SDS011;16247;50.840;4.382;2022-12-07T19:52:36;15.40;;;9.18;;
29206;SDS011;16247;50.840;4.382;2022-12-07T19:55:54;13.25;;;8.15;;
29206;SDS011;16247;50.840;4.382;2022-12-07T19:58:43;13.38;;;8.13;;
29206;SDS011;16247;50.840;4.382;2022-12-07T20:01:13;12.15;;;7.63;;
29206;SDS011;16247;50.840;4.382;2022-12-07T20:03:55;14.63;;;7.40;;
29206;SDS011;16247;50.840;4.382;2022-12-07T20:06:21;22.08;;;8.23;;
29206;SDS011;16247;50.840;4.382;2022-12-07T20:08:51;13.52;;;8.10;;
29206;SDS011;16247;50.840;4.382;2022-12-07T20:11:18;15.05;;;8.63;;
29206;SDS011;16247;50.840;4.382;2022-12-07T20:14:10;16.50;;;9.00;;
29206;SDS011;16247;50.840;4.382;2022-12-07T20:19:14;13.52;;;8.25;;
29206;SDS011;16247;50.840;4.382;2022-12-07T20:21:40;14.85;;;7.90;;
29206;SDS011;16247;50.840;4.382;2022-12-07T20:24:19;14.70;;;8.32;;
29206;SDS011;16247;50.840;4.382;2022-12-07T20:31:59;15.68;;;8.25;;
29206;SDS011;16247;50.840;4.382;2022-12-07T20:45:08;13.32;;;7.57;;
29206;SDS011;16247;50.840;4.382;2022-12-07T20:47:58;14.45;;;7.95;;
29206;SDS011;16247;50.840;4.382;2022-12-07T20:50:25;13.95;;;7.80;;
29206;SDS011;16247;50.840;4.382;2022-12-07T20:52:59;15.88;;;7.80;;
29206;SDS011;16247;50.840;4.382;2022-12-07T20:55:24;15.82;;;7.93;;
29206;SDS011;16247;50.840;4.382;2022-12-07T20:57:50;19.30;;;8.20;;
29206;SDS011;16247;50.840;4.382;2022-12-07T21:00:19;18.38;;;7.75;;
29206;SDS011;16247;50.840;4.382;2022-12-07T21:02:52;14.93;;;7.60;;
29206;SDS011;16247;50.840;4.382;2022-12-07T21:05:33;14.85;;;8.10;;
29206;SDS011;16247;50.840;4.382;2022-12-07T21:10:31;18.13;;;8.73;;
29206;SDS011;16247;50.840;4.382;2022-12-07T21:12:58;17.20;;;8.82;;
29206;SDS011;16247;50.840;4.382;2022-12-07T21:15:24;15.50;;;8.50;;
29206;SDS011;16247;50.840;4.382;2022-12-07T21:17:51;16.70;;;8.40;;
29206;SDS011;16247;50.840;4.382;2022-12-07T21:20:20;17.77;;;8.90;;
29206;SDS011;16247;50.840;4.382;2022-12-07T21:25:33;15.45;;;8.73;;
29206;SDS011;16247;50.840;4.382;2022-12-07T21:28:02;15.45;;;8.30;;
29206;SDS011;16247;50.840;4.382;2022-12-07T21:30:34;13.35;;;8.70;;
29206;SDS011;16247;50.840;4.382;2022-12-07T21:35:57;13.73;;;7.80;;
29206;SDS011;16247;50.840;4.382;2022-12-07T21:38:30;11.60;;;6.82;;
29206;SDS011;16247;50.840;4.382;2022-12-07T21:40:56;14.38;;;7.93;;
29206;SDS011;16247;50.840;4.382;2022-12-07T21:43:24;12.93;;;7.30;;
29206;SDS011;16247;50.840;4.382;2022-12-07T21:45:52;14.48;;;7.38;;
29206;SDS011;16247;50.840;4.382;2022-12-07T21:48:28;12.07;;;7.15;;
29206;SDS011;16247;50.840;4.382;2022-12-07T21:51:06;13.95;;;7.80;;
29206;SDS011;16247;50.840;4.382;2022-12-07T21:53:41;17.02;;;8.07;;
29206;SDS011;16247;50.840;4.382;2022-12-07T21:56:18;12.85;;;7.45;;
29206;SDS011;16247;50.840;4.382;2022-12-07T22:08:17;13.43;;;7.18;;
29206;SDS011;16247;50.840;4.382;2022-12-07T22:10:45;13.15;;;7.40;;
29206;SDS011;16247;50.840;4.382;2022-12-07T22:13:10;15.23;;;7.90;;
29206;SDS011;16247;50.840;4.382;2022-12-07T22:15:38;13.73;;;7.25;;
29206;SDS011;16247;50.840;4.382;2022-12-07T22:18:07;15.52;;;7.07;;
29206;SDS011;16247;50.840;4.382;2022-12-07T22:23:55;13.05;;;7.70;;
29206;SDS011;16247;50.840;4.382;2022-12-07T22:42:09;17.55;;;10.25;;
29206;SDS011;16247;50.840;4.382;2022-12-07T22:44:40;17.23;;;10.60;;
29206;SDS011;16247;50.840;4.382;2022-12-07T22:47:07;18.10;;;10.65;;
29206;SDS011;16247;50.840;4.382;2022-12-07T22:49:34;22.23;;;12.95;;
29206;SDS011;16247;50.840;4.382;2022-12-07T22:52:00;19.88;;;12.00;;
29206;SDS011;16247;50.840;4.382;2022-12-07T22:54:25;23.83;;;13.77;;
29206;SDS011;16247;50.840;4.382;2022-12-07T22:56:51;24.05;;;13.70;;
29206;SDS011;16247;50.840;4.382;2022-12-07T22:59:16;25.60;;;15.77;;
29206;SDS011;16247;50.840;4.382;2022-12-07T23:01:45;26.33;;;16.25;;
29206;SDS011;16247;50.840;4.382;2022-12-07T23:04:11;26.77;;;15.48;;
29206;SDS011;16247;50.840;4.382;2022-12-07T23:06:36;28.13;;;16.02;;
29206;SDS011;16247;50.840;4.382;2022-12-07T23:09:06;30.70;;;15.98;;
29206;SDS011;16247;50.840;4.382;2022-12-07T23:11:37;27.50;;;15.75;;
29206;SDS011;16247;50.840;4.382;2022-12-07T23:14:25;30.23;;;16.42;;
29206;SDS011;16247;50.840;4.382;2022-12-07T23:16:58;31.27;;;17.25;;
29206;SDS011;16247;50.840;4.382;2022-12-07T23:19:25;30.90;;;16.30;;
29206;SDS011;16247;50.840;4.382;2022-12-07T23:21:51;32.55;;;16.92;;
29206;SDS011;16247;50.840;4.382;2022-12-07T23:24:16;30.67;;;18.00;;
29206;SDS011;16247;50.840;4.382;2022-12-07T23:26:42;31.63;;;18.10;;
29206;SDS011;16247;50.840;4.382;2022-12-07T23:29:09;32.22;;;16.88;;
29206;SDS011;16247;50.840;4.382;2022-12-07T23:31:37;31.77;;;17.20;;
29206;SDS011;16247;50.840;4.382;2022-12-07T23:34:02;32.60;;;18.38;;
29206;SDS011;16247;50.840;4.382;2022-12-07T23:36:28;37.20;;;19.90;;
29206;SDS011;16247;50.840;4.382;2022-12-07T23:41:24;41.78;;;20.02;;
29206;SDS011;16247;50.840;4.382;2022-12-07T23:46:18;33.25;;;18.77;;
29206;SDS011;16247;50.840;4.382;2022-12-07T23:48:47;28.67;;;18.23;;
29206;SDS011;16247;50.840;4.382;2022-12-07T23:51:14;33.63;;;19.83;;
29206;SDS011;16247;50.840;4.382;2022-12-07T23:53:41;34.42;;;18.73;;
29206;SDS011;16247;50.840;4.382;2022-12-07T23:56:12;35.05;;;21.25;;
29206;SDS011;16247;50.840;4.382;2022-12-07T23:58:40;29.00;;;18.95;;
